Kings Mountain, North Carolina
Current Conditions -  °F | °C
As of 7:54 AM on Friday 28 Nov 2014 (Local Time) from KAKH Reporting Station
Clear Clear  
Wind Chill: 29°   Ceiling: Unl
Heat Index: 29°   Visibility: 10mi
Dew Point: 19°   Wind: 0mph
Humidity: 67%   Direction: NA
Pressure: 30.36"   Gusts: NA
Location:  35.24°N, 81.34°W
Report Text: KAKH 281254Z AUTO 00000KT 10SM CLR M02/M07 A3036 RMK AO2 SLP287 T10171072
Loading
Personal Weather Stations






























Interactive Weather Map New forecast layout! Learn more

10-Day Weather Forecast

Advertisements
Track Severe Weather on mobile